sensor_id;sensor_type;location;lat;lon;timestamp;P1;durP1;ratioP1;P2;durP2;ratioP2
20093;SDS011;10206;48.012;10.030;2024-01-07T00:01:29;17.27;;;11.40;;
20093;SDS011;10206;48.012;10.030;2024-01-07T00:03:55;17.30;;;12.03;;
20093;SDS011;10206;48.012;10.030;2024-01-07T00:06:21;16.40;;;11.00;;
20093;SDS011;10206;48.012;10.030;2024-01-07T00:08:47;19.33;;;12.43;;
20093;SDS011;10206;48.012;10.030;2024-01-07T00:11:13;19.33;;;11.33;;
20093;SDS011;10206;48.012;10.030;2024-01-07T00:13:40;16.83;;;11.47;;
20093;SDS011;10206;48.012;10.030;2024-01-07T00:16:06;18.60;;;11.60;;
20093;SDS011;10206;48.012;10.030;2024-01-07T00:18:32;16.80;;;11.13;;
20093;SDS011;10206;48.012;10.030;2024-01-07T00:20:58;18.07;;;11.63;;
20093;SDS011;10206;48.012;10.030;2024-01-07T00:23:25;17.73;;;11.10;;
20093;SDS011;10206;48.012;10.030;2024-01-07T00:25:51;17.97;;;10.93;;
20093;SDS011;10206;48.012;10.030;2024-01-07T00:28:17;19.63;;;11.33;;
20093;SDS011;10206;48.012;10.030;2024-01-07T00:30:43;18.33;;;11.40;;
20093;SDS011;10206;48.012;10.030;2024-01-07T00:33:09;20.27;;;11.67;;
20093;SDS011;10206;48.012;10.030;2024-01-07T00:35:36;17.07;;;11.10;;
20093;SDS011;10206;48.012;10.030;2024-01-07T00:38:02;18.97;;;11.63;;
20093;SDS011;10206;48.012;10.030;2024-01-07T00:40:28;18.13;;;11.40;;
20093;SDS011;10206;48.012;10.030;2024-01-07T00:42:54;17.13;;;10.63;;
20093;SDS011;10206;48.012;10.030;2024-01-07T00:45:20;19.80;;;12.27;;
20093;SDS011;10206;48.012;10.030;2024-01-07T00:47:47;17.97;;;12.13;;
20093;SDS011;10206;48.012;10.030;2024-01-07T00:50:13;19.07;;;11.67;;
20093;SDS011;10206;48.012;10.030;2024-01-07T00:52:39;20.47;;;12.00;;
20093;SDS011;10206;48.012;10.030;2024-01-07T00:55:07;18.10;;;11.80;;
20093;SDS011;10206;48.012;10.030;2024-01-07T00:57:34;22.80;;;13.80;;
20093;SDS011;10206;48.012;10.030;2024-01-07T01:00:00;20.67;;;12.73;;
20093;SDS011;10206;48.012;10.030;2024-01-07T01:02:29;22.73;;;13.03;;
20093;SDS011;10206;48.012;10.030;2024-01-07T01:04:55;27.70;;;15.07;;
20093;SDS011;10206;48.012;10.030;2024-01-07T01:07:21;23.03;;;13.10;;
20093;SDS011;10206;48.012;10.030;2024-01-07T01:09:47;21.37;;;12.73;;
20093;SDS011;10206;48.012;10.030;2024-01-07T01:12:14;21.53;;;12.70;;
20093;SDS011;10206;48.012;10.030;2024-01-07T01:14:40;20.20;;;11.93;;
20093;SDS011;10206;48.012;10.030;2024-01-07T01:17:06;18.77;;;12.07;;
20093;SDS011;10206;48.012;10.030;2024-01-07T01:19:32;17.33;;;11.57;;
20093;SDS011;10206;48.012;10.030;2024-01-07T01:21:59;19.80;;;11.67;;
20093;SDS011;10206;48.012;10.030;2024-01-07T01:24:25;18.17;;;11.67;;
20093;SDS011;10206;48.012;10.030;2024-01-07T01:26:51;19.73;;;12.40;;
20093;SDS011;10206;48.012;10.030;2024-01-07T01:29:17;17.23;;;10.67;;
20093;SDS011;10206;48.012;10.030;2024-01-07T01:31:43;19.10;;;12.00;;
20093;SDS011;10206;48.012;10.030;2024-01-07T01:34:09;18.97;;;12.40;;
20093;SDS011;10206;48.012;10.030;2024-01-07T01:36:35;18.60;;;12.30;;
20093;SDS011;10206;48.012;10.030;2024-01-07T01:39:01;19.50;;;11.57;;
20093;SDS011;10206;48.012;10.030;2024-01-07T01:41:28;22.10;;;13.07;;
20093;SDS011;10206;48.012;10.030;2024-01-07T01:43:58;18.77;;;11.97;;
20093;SDS011;10206;48.012;10.030;2024-01-07T01:46:25;18.37;;;12.37;;
20093;SDS011;10206;48.012;10.030;2024-01-07T01:48:51;20.83;;;12.10;;
20093;SDS011;10206;48.012;10.030;2024-01-07T01:51:18;18.73;;;11.90;;
20093;SDS011;10206;48.012;10.030;2024-01-07T01:53:45;16.97;;;11.07;;
20093;SDS011;10206;48.012;10.030;2024-01-07T01:56:12;22.20;;;13.03;;
20093;SDS011;10206;48.012;10.030;2024-01-07T01:58:41;23.43;;;14.50;;
20093;SDS011;10206;48.012;10.030;2024-01-07T02:01:08;28.67;;;15.07;;
20093;SDS011;10206;48.012;10.030;2024-01-07T02:03:34;38.17;;;20.10;;
20093;SDS011;10206;48.012;10.030;2024-01-07T02:06:00;35.43;;;18.63;;
20093;SDS011;10206;48.012;10.030;2024-01-07T02:08:27;33.63;;;17.33;;
20093;SDS011;10206;48.012;10.030;2024-01-07T02:10:54;30.03;;;16.80;;
20093;SDS011;10206;48.012;10.030;2024-01-07T02:13:20;30.33;;;17.03;;
20093;SDS011;10206;48.012;10.030;2024-01-07T02:15:46;33.87;;;17.50;;
20093;SDS011;10206;48.012;10.030;2024-01-07T02:18:12;30.87;;;17.20;;
20093;SDS011;10206;48.012;10.030;2024-01-07T02:20:39;35.10;;;18.60;;
20093;SDS011;10206;48.012;10.030;2024-01-07T02:23:05;33.70;;;17.93;;
20093;SDS011;10206;48.012;10.030;2024-01-07T02:25:35;29.13;;;16.73;;
20093;SDS011;10206;48.012;10.030;2024-01-07T02:28:01;27.10;;;15.43;;
20093;SDS011;10206;48.012;10.030;2024-01-07T02:30:27;31.00;;;17.40;;
20093;SDS011;10206;48.012;10.030;2024-01-07T02:32:53;34.57;;;18.90;;
20093;SDS011;10206;48.012;10.030;2024-01-07T02:35:19;30.23;;;16.40;;
20093;SDS011;10206;48.012;10.030;2024-01-07T02:37:45;22.27;;;13.23;;
20093;SDS011;10206;48.012;10.030;2024-01-07T02:40:11;20.10;;;12.63;;
20093;SDS011;10206;48.012;10.030;2024-01-07T02:42:38;22.50;;;12.70;;
20093;SDS011;10206;48.012;10.030;2024-01-07T02:45:04;21.63;;;12.53;;
20093;SDS011;10206;48.012;10.030;2024-01-07T02:47:30;19.87;;;12.40;;
20093;SDS011;10206;48.012;10.030;2024-01-07T02:49:56;16.67;;;10.80;;
20093;SDS011;10206;48.012;10.030;2024-01-07T02:52:22;15.50;;;10.03;;
20093;SDS011;10206;48.012;10.030;2024-01-07T02:54:48;16.47;;;10.67;;
20093;SDS011;10206;48.012;10.030;2024-01-07T02:57:14;16.17;;;10.17;;
20093;SDS011;10206;48.012;10.030;2024-01-07T02:59:41;15.90;;;10.03;;
20093;SDS011;10206;48.012;10.030;2024-01-07T03:02:07;15.13;;;10.00;;
20093;SDS011;10206;48.012;10.030;2024-01-07T03:04:33;14.70;;;9.53;;
20093;SDS011;10206;48.012;10.030;2024-01-07T03:06:59;14.37;;;9.37;;
20093;SDS011;10206;48.012;10.030;2024-01-07T03:09:25;14.43;;;9.20;;
20093;SDS011;10206;48.012;10.030;2024-01-07T03:11:51;14.10;;;9.10;;
20093;SDS011;10206;48.012;10.030;2024-01-07T03:14:19;13.53;;;8.90;;
20093;SDS011;10206;48.012;10.030;2024-01-07T03:16:46;13.93;;;8.63;;
20093;SDS011;10206;48.012;10.030;2024-01-07T03:19:12;13.53;;;8.13;;
20093;SDS011;10206;48.012;10.030;2024-01-07T03:21:38;13.23;;;8.60;;
20093;SDS011;10206;48.012;10.030;2024-01-07T03:24:05;13.63;;;8.57;;
20093;SDS011;10206;48.012;10.030;2024-01-07T03:26:31;12.93;;;8.87;;
20093;SDS011;10206;48.012;10.030;2024-01-07T03:28:57;12.90;;;8.37;;
20093;SDS011;10206;48.012;10.030;2024-01-07T03:31:27;12.37;;;7.73;;
20093;SDS011;10206;48.012;10.030;2024-01-07T03:33:54;10.57;;;7.13;;
20093;SDS011;10206;48.012;10.030;2024-01-07T03:36:20;12.97;;;8.53;;
20093;SDS011;10206;48.012;10.030;2024-01-07T03:38:46;11.30;;;7.37;;
20093;SDS011;10206;48.012;10.030;2024-01-07T03:41:19;12.37;;;7.97;;
20093;SDS011;10206;48.012;10.030;2024-01-07T03:43:46;11.37;;;7.40;;
20093;SDS011;10206;48.012;10.030;2024-01-07T03:46:13;12.00;;;7.87;;
20093;SDS011;10206;48.012;10.030;2024-01-07T03:48:40;11.60;;;7.60;;
20093;SDS011;10206;48.012;10.030;2024-01-07T03:51:06;11.03;;;7.57;;
20093;SDS011;10206;48.012;10.030;2024-01-07T03:53:32;11.70;;;7.97;;
20093;SDS011;10206;48.012;10.030;2024-01-07T03:55:58;11.60;;;7.07;;
20093;SDS011;10206;48.012;10.030;2024-01-07T03:58:25;10.83;;;7.13;;
20093;SDS011;10206;48.012;10.030;2024-01-07T04:00:51;12.40;;;7.70;;
20093;SDS011;10206;48.012;10.030;2024-01-07T04:03:17;12.27;;;7.20;;
20093;SDS011;10206;48.012;10.030;2024-01-07T04:05:43;9.93;;;6.83;;
20093;SDS011;10206;48.012;10.030;2024-01-07T04:08:12;11.17;;;6.93;;
20093;SDS011;10206;48.012;10.030;2024-01-07T04:10:40;11.57;;;7.40;;
20093;SDS011;10206;48.012;10.030;2024-01-07T04:13:07;12.30;;;7.57;;
20093;SDS011;10206;48.012;10.030;2024-01-07T04:15:33;11.37;;;6.53;;
20093;SDS011;10206;48.012;10.030;2024-01-07T04:18:05;11.93;;;8.00;;
20093;SDS011;10206;48.012;10.030;2024-01-07T04:20:31;12.03;;;7.40;;
20093;SDS011;10206;48.012;10.030;2024-01-07T04:22:57;15.03;;;8.00;;
20093;SDS011;10206;48.012;10.030;2024-01-07T04:25:24;14.87;;;8.57;;
20093;SDS011;10206;48.012;10.030;2024-01-07T04:27:50;12.93;;;8.43;;
20093;SDS011;10206;48.012;10.030;2024-01-07T04:30:16;13.90;;;8.73;;
20093;SDS011;10206;48.012;10.030;2024-01-07T04:32:42;13.53;;;8.60;;
20093;SDS011;10206;48.012;10.030;2024-01-07T04:35:08;14.77;;;8.77;;
20093;SDS011;10206;48.012;10.030;2024-01-07T04:37:35;14.47;;;9.07;;
20093;SDS011;10206;48.012;10.030;2024-01-07T04:40:02;16.57;;;10.27;;
20093;SDS011;10206;48.012;10.030;2024-01-07T04:42:28;15.40;;;9.30;;
20093;SDS011;10206;48.012;10.030;2024-01-07T04:44:54;14.43;;;9.07;;
20093;SDS011;10206;48.012;10.030;2024-01-07T04:47:28;14.87;;;9.20;;
20093;SDS011;10206;48.012;10.030;2024-01-07T04:49:55;16.83;;;9.83;;
20093;SDS011;10206;48.012;10.030;2024-01-07T04:52:22;15.43;;;9.63;;
20093;SDS011;10206;48.012;10.030;2024-01-07T04:54:52;15.67;;;9.63;;
20093;SDS011;10206;48.012;10.030;2024-01-07T04:57:19;14.63;;;8.77;;
20093;SDS011;10206;48.012;10.030;2024-01-07T04:59:46;16.17;;;9.57;;
20093;SDS011;10206;48.012;10.030;2024-01-07T05:02:12;17.63;;;9.60;;
20093;SDS011;10206;48.012;10.030;2024-01-07T05:04:39;17.23;;;10.47;;
20093;SDS011;10206;48.012;10.030;2024-01-07T05:07:05;16.93;;;10.40;;
20093;SDS011;10206;48.012;10.030;2024-01-07T05:09:31;18.53;;;11.07;;
20093;SDS011;10206;48.012;10.030;2024-01-07T05:11:58;15.70;;;10.27;;
20093;SDS011;10206;48.012;10.030;2024-01-07T05:14:25;18.30;;;11.07;;
20093;SDS011;10206;48.012;10.030;2024-01-07T05:16:51;19.67;;;11.67;;
20093;SDS011;10206;48.012;10.030;2024-01-07T05:19:19;17.33;;;11.23;;
20093;SDS011;10206;48.012;10.030;2024-01-07T05:21:45;20.57;;;10.90;;
20093;SDS011;10206;48.012;10.030;2024-01-07T05:24:11;18.23;;;10.53;;
20093;SDS011;10206;48.012;10.030;2024-01-07T05:26:38;18.60;;;10.30;;
20093;SDS011;10206;48.012;10.030;2024-01-07T05:29:05;16.23;;;10.37;;
20093;SDS011;10206;48.012;10.030;2024-01-07T05:31:31;19.07;;;10.67;;
20093;SDS011;10206;48.012;10.030;2024-01-07T05:33:57;18.20;;;11.20;;
20093;SDS011;10206;48.012;10.030;2024-01-07T05:36:23;17.93;;;10.90;;
20093;SDS011;10206;48.012;10.030;2024-01-07T05:38:49;17.07;;;10.47;;
20093;SDS011;10206;48.012;10.030;2024-01-07T05:41:16;16.57;;;10.23;;
20093;SDS011;10206;48.012;10.030;2024-01-07T05:43:42;17.13;;;10.77;;
20093;SDS011;10206;48.012;10.030;2024-01-07T05:46:08;18.10;;;10.93;;
20093;SDS011;10206;48.012;10.030;2024-01-07T05:48:42;19.07;;;10.43;;
20093;SDS011;10206;48.012;10.030;2024-01-07T05:51:09;16.20;;;10.50;;
20093;SDS011;10206;48.012;10.030;2024-01-07T05:53:35;17.57;;;10.60;;
20093;SDS011;10206;48.012;10.030;2024-01-07T05:56:01;16.53;;;10.50;;
20093;SDS011;10206;48.012;10.030;2024-01-07T05:58:28;16.43;;;10.73;;
20093;SDS011;10206;48.012;10.030;2024-01-07T06:00:54;16.37;;;9.30;;
20093;SDS011;10206;48.012;10.030;2024-01-07T06:03:21;15.07;;;10.10;;
20093;SDS011;10206;48.012;10.030;2024-01-07T06:05:47;16.60;;;10.53;;
20093;SDS011;10206;48.012;10.030;2024-01-07T06:08:13;15.00;;;9.87;;
20093;SDS011;10206;48.012;10.030;2024-01-07T06:10:39;16.33;;;9.80;;
20093;SDS011;10206;48.012;10.030;2024-01-07T06:13:06;15.90;;;10.47;;
20093;SDS011;10206;48.012;10.030;2024-01-07T06:15:32;17.20;;;10.90;;
20093;SDS011;10206;48.012;10.030;2024-01-07T06:17:58;17.73;;;11.23;;
20093;SDS011;10206;48.012;10.030;2024-01-07T06:20:24;20.10;;;12.17;;
20093;SDS011;10206;48.012;10.030;2024-01-07T06:22:50;21.27;;;12.87;;
20093;SDS011;10206;48.012;10.030;2024-01-07T06:25:16;27.03;;;16.50;;
20093;SDS011;10206;48.012;10.030;2024-01-07T06:27:42;20.77;;;13.87;;
20093;SDS011;10206;48.012;10.030;2024-01-07T06:30:09;18.87;;;12.33;;
20093;SDS011;10206;48.012;10.030;2024-01-07T06:32:35;21.13;;;13.80;;
20093;SDS011;10206;48.012;10.030;2024-01-07T06:35:01;20.50;;;13.83;;
20093;SDS011;10206;48.012;10.030;2024-01-07T06:37:30;21.40;;;14.47;;
20093;SDS011;10206;48.012;10.030;2024-01-07T06:39:56;23.80;;;15.97;;
20093;SDS011;10206;48.012;10.030;2024-01-07T06:42:23;19.30;;;12.50;;
20093;SDS011;10206;48.012;10.030;2024-01-07T06:44:49;26.37;;;17.00;;
20093;SDS011;10206;48.012;10.030;2024-01-07T06:47:16;31.10;;;16.70;;
20093;SDS011;10206;48.012;10.030;2024-01-07T06:49:42;44.03;;;26.83;;
20093;SDS011;10206;48.012;10.030;2024-01-07T06:52:08;28.40;;;17.37;;
20093;SDS011;10206;48.012;10.030;2024-01-07T06:54:34;25.20;;;14.93;;
20093;SDS011;10206;48.012;10.030;2024-01-07T06:57:00;29.37;;;17.10;;
20093;SDS011;10206;48.012;10.030;2024-01-07T06:59:27;26.03;;;14.47;;
20093;SDS011;10206;48.012;10.030;2024-01-07T07:01:53;19.73;;;13.40;;
20093;SDS011;10206;48.012;10.030;2024-01-07T07:04:21;29.50;;;16.33;;
20093;SDS011;10206;48.012;10.030;2024-01-07T07:06:47;26.17;;;14.63;;
20093;SDS011;10206;48.012;10.030;2024-01-07T07:09:13;22.63;;;13.07;;
20093;SDS011;10206;48.012;10.030;2024-01-07T07:11:40;33.87;;;19.23;;
20093;SDS011;10206;48.012;10.030;2024-01-07T07:14:06;29.83;;;18.50;;
20093;SDS011;10206;48.012;10.030;2024-01-07T07:16:32;25.33;;;14.77;;
20093;SDS011;10206;48.012;10.030;2024-01-07T07:18:58;23.50;;;15.70;;
20093;SDS011;10206;48.012;10.030;2024-01-07T07:21:24;23.67;;;14.43;;
20093;SDS011;10206;48.012;10.030;2024-01-07T07:23:52;23.20;;;15.07;;
20093;SDS011;10206;48.012;10.030;2024-01-07T07:26:18;25.73;;;14.13;;
20093;SDS011;10206;48.012;10.030;2024-01-07T07:28:44;34.67;;;21.43;;
20093;SDS011;10206;48.012;10.030;2024-01-07T07:31:11;35.23;;;22.60;;
20093;SDS011;10206;48.012;10.030;2024-01-07T07:33:40;31.10;;;18.87;;
20093;SDS011;10206;48.012;10.030;2024-01-07T07:36:07;28.00;;;17.53;;
20093;SDS011;10206;48.012;10.030;2024-01-07T07:38:33;27.40;;;16.30;;
20093;SDS011;10206;48.012;10.030;2024-01-07T07:40:59;26.63;;;16.10;;
20093;SDS011;10206;48.012;10.030;2024-01-07T07:43:25;28.97;;;17.67;;
20093;SDS011;10206;48.012;10.030;2024-01-07T07:45:51;30.00;;;17.97;;
20093;SDS011;10206;48.012;10.030;2024-01-07T07:48:18;28.13;;;16.40;;
20093;SDS011;10206;48.012;10.030;2024-01-07T07:50:44;27.37;;;17.30;;
20093;SDS011;10206;48.012;10.030;2024-01-07T07:53:10;29.47;;;17.13;;
20093;SDS011;10206;48.012;10.030;2024-01-07T07:55:36;28.43;;;16.13;;
20093;SDS011;10206;48.012;10.030;2024-01-07T07:58:03;29.43;;;18.63;;
20093;SDS011;10206;48.012;10.030;2024-01-07T08:00:29;32.30;;;19.63;;
20093;SDS011;10206;48.012;10.030;2024-01-07T08:02:55;39.17;;;23.27;;
20093;SDS011;10206;48.012;10.030;2024-01-07T08:05:21;47.47;;;26.53;;
20093;SDS011;10206;48.012;10.030;2024-01-07T08:07:47;40.10;;;22.97;;
20093;SDS011;10206;48.012;10.030;2024-01-07T08:10:13;29.47;;;17.27;;
20093;SDS011;10206;48.012;10.030;2024-01-07T08:12:39;35.77;;;20.97;;
20093;SDS011;10206;48.012;10.030;2024-01-07T08:15:05;37.00;;;21.30;;
20093;SDS011;10206;48.012;10.030;2024-01-07T08:17:32;45.17;;;23.57;;
20093;SDS011;10206;48.012;10.030;2024-01-07T08:19:58;39.43;;;19.97;;
20093;SDS011;10206;48.012;10.030;2024-01-07T08:22:26;44.00;;;23.17;;
20093;SDS011;10206;48.012;10.030;2024-01-07T08:24:52;39.30;;;20.13;;
20093;SDS011;10206;48.012;10.030;2024-01-07T08:27:19;34.33;;;19.93;;
20093;SDS011;10206;48.012;10.030;2024-01-07T08:29:46;178.37;;;58.53;;
20093;SDS011;10206;48.012;10.030;2024-01-07T08:32:12;49.03;;;25.20;;
20093;SDS011;10206;48.012;10.030;2024-01-07T08:34:38;30.40;;;18.57;;
20093;SDS011;10206;48.012;10.030;2024-01-07T08:37:05;35.53;;;19.90;;
20093;SDS011;10206;48.012;10.030;2024-01-07T08:39:32;35.20;;;20.67;;
20093;SDS011;10206;48.012;10.030;2024-01-07T08:41:58;37.00;;;21.53;;
20093;SDS011;10206;48.012;10.030;2024-01-07T08:44:24;31.40;;;18.40;;
20093;SDS011;10206;48.012;10.030;2024-01-07T08:46:50;34.87;;;19.87;;
20093;SDS011;10206;48.012;10.030;2024-01-07T08:49:16;60.03;;;29.57;;
20093;SDS011;10206;48.012;10.030;2024-01-07T08:51:42;35.70;;;21.27;;
20093;SDS011;10206;48.012;10.030;2024-01-07T08:54:09;35.10;;;20.73;;
20093;SDS011;10206;48.012;10.030;2024-01-07T08:56:35;38.13;;;22.70;;
20093;SDS011;10206;48.012;10.030;2024-01-07T08:59:01;55.50;;;27.23;;
20093;SDS011;10206;48.012;10.030;2024-01-07T09:01:29;35.17;;;20.37;;
20093;SDS011;10206;48.012;10.030;2024-01-07T09:03:55;68.73;;;31.50;;
20093;SDS011;10206;48.012;10.030;2024-01-07T09:06:21;34.43;;;18.70;;
20093;SDS011;10206;48.012;10.030;2024-01-07T09:08:47;32.13;;;18.90;;
20093;SDS011;10206;48.012;10.030;2024-01-07T09:11:13;42.90;;;23.67;;
20093;SDS011;10206;48.012;10.030;2024-01-07T09:13:41;36.77;;;20.97;;
20093;SDS011;10206;48.012;10.030;2024-01-07T09:16:07;34.17;;;18.87;;
20093;SDS011;10206;48.012;10.030;2024-01-07T09:18:36;94.90;;;40.30;;
20093;SDS011;10206;48.012;10.030;2024-01-07T09:21:02;39.90;;;21.70;;
20093;SDS011;10206;48.012;10.030;2024-01-07T09:23:28;69.00;;;31.40;;
20093;SDS011;10206;48.012;10.030;2024-01-07T09:25:55;31.27;;;19.80;;
20093;SDS011;10206;48.012;10.030;2024-01-07T09:28:21;33.63;;;20.30;;
20093;SDS011;10206;48.012;10.030;2024-01-07T09:30:47;30.17;;;18.90;;
20093;SDS011;10206;48.012;10.030;2024-01-07T09:33:13;32.00;;;19.83;;
20093;SDS011;10206;48.012;10.030;2024-01-07T09:35:40;107.80;;;64.63;;
20093;SDS011;10206;48.012;10.030;2024-01-07T09:38:06;36.00;;;21.83;;
20093;SDS011;10206;48.012;10.030;2024-01-07T09:40:32;34.13;;;20.93;;
20093;SDS011;10206;48.012;10.030;2024-01-07T09:42:58;31.10;;;17.83;;
20093;SDS011;10206;48.012;10.030;2024-01-07T09:45:25;30.10;;;18.23;;
20093;SDS011;10206;48.012;10.030;2024-01-07T09:47:51;34.87;;;19.73;;
20093;SDS011;10206;48.012;10.030;2024-01-07T09:50:17;32.60;;;20.33;;
20093;SDS011;10206;48.012;10.030;2024-01-07T09:52:43;33.03;;;20.57;;
20093;SDS011;10206;48.012;10.030;2024-01-07T09:55:12;37.20;;;22.00;;
20093;SDS011;10206;48.012;10.030;2024-01-07T09:57:45;31.00;;;19.23;;
20093;SDS011;10206;48.012;10.030;2024-01-07T10:00:12;33.27;;;19.97;;
20093;SDS011;10206;48.012;10.030;2024-01-07T10:02:38;32.80;;;19.40;;
20093;SDS011;10206;48.012;10.030;2024-01-07T10:05:06;33.77;;;19.87;;
20093;SDS011;10206;48.012;10.030;2024-01-07T10:07:32;33.20;;;21.10;;
20093;SDS011;10206;48.012;10.030;2024-01-07T10:10:09;32.60;;;18.80;;
20093;SDS011;10206;48.012;10.030;2024-01-07T10:12:39;27.93;;;17.30;;
20093;SDS011;10206;48.012;10.030;2024-01-07T10:15:05;28.97;;;16.67;;
20093;SDS011;10206;48.012;10.030;2024-01-07T10:17:32;34.57;;;19.87;;
20093;SDS011;10206;48.012;10.030;2024-01-07T10:19:59;27.40;;;17.23;;
20093;SDS011;10206;48.012;10.030;2024-01-07T10:22:25;24.67;;;14.97;;
20093;SDS011;10206;48.012;10.030;2024-01-07T10:24:52;22.80;;;14.90;;
20093;SDS011;10206;48.012;10.030;2024-01-07T10:27:18;27.43;;;15.37;;
20093;SDS011;10206;48.012;10.030;2024-01-07T10:29:47;23.57;;;13.90;;
20093;SDS011;10206;48.012;10.030;2024-01-07T10:32:20;21.97;;;14.27;;
20093;SDS011;10206;48.012;10.030;2024-01-07T10:34:46;23.23;;;13.50;;
20093;SDS011;10206;48.012;10.030;2024-01-07T10:37:13;22.93;;;13.43;;
20093;SDS011;10206;48.012;10.030;2024-01-07T10:39:39;22.53;;;13.47;;
20093;SDS011;10206;48.012;10.030;2024-01-07T10:42:06;24.80;;;14.07;;
20093;SDS011;10206;48.012;10.030;2024-01-07T10:44:33;22.60;;;14.53;;
20093;SDS011;10206;48.012;10.030;2024-01-07T10:47:00;27.73;;;15.83;;
20093;SDS011;10206;48.012;10.030;2024-01-07T10:49:31;23.23;;;13.50;;
20093;SDS011;10206;48.012;10.030;2024-01-07T10:54:30;21.53;;;13.50;;
20093;SDS011;10206;48.012;10.030;2024-01-07T10:56:58;20.73;;;12.17;;
20093;SDS011;10206;48.012;10.030;2024-01-07T10:59:30;17.77;;;11.57;;
20093;SDS011;10206;48.012;10.030;2024-01-07T11:01:58;18.93;;;10.87;;
20093;SDS011;10206;48.012;10.030;2024-01-07T11:10:12;19.60;;;11.67;;
20093;SDS011;10206;48.012;10.030;2024-01-07T11:12:56;18.37;;;11.30;;
20093;SDS011;10206;48.012;10.030;2024-01-07T11:18:22;21.07;;;11.47;;
20093;SDS011;10206;48.012;10.030;2024-01-07T11:20:48;19.60;;;10.90;;
20093;SDS011;10206;48.012;10.030;2024-01-07T11:23:31;19.53;;;10.37;;
20093;SDS011;10206;48.012;10.030;2024-01-07T11:26:02;20.83;;;11.83;;
20093;SDS011;10206;48.012;10.030;2024-01-07T11:28:42;17.93;;;10.07;;
20093;SDS011;10206;48.012;10.030;2024-01-07T11:31:16;16.97;;;9.40;;
20093;SDS011;10206;48.012;10.030;2024-01-07T11:33:44;17.30;;;9.63;;
20093;SDS011;10206;48.012;10.030;2024-01-07T11:36:12;18.07;;;9.40;;
20093;SDS011;10206;48.012;10.030;2024-01-07T11:38:47;18.13;;;10.23;;
20093;SDS011;10206;48.012;10.030;2024-01-07T11:41:14;16.80;;;10.20;;
20093;SDS011;10206;48.012;10.030;2024-01-07T11:43:55;14.97;;;8.73;;
20093;SDS011;10206;48.012;10.030;2024-01-07T11:46:24;16.90;;;9.43;;
20093;SDS011;10206;48.012;10.030;2024-01-07T11:48:54;15.83;;;9.20;;
20093;SDS011;10206;48.012;10.030;2024-01-07T11:51:26;16.23;;;9.23;;
20093;SDS011;10206;48.012;10.030;2024-01-07T11:53:55;18.27;;;9.87;;
20093;SDS011;10206;48.012;10.030;2024-01-07T11:56:22;21.50;;;11.77;;
20093;SDS011;10206;48.012;10.030;2024-01-07T11:58:49;18.37;;;9.47;;
20093;SDS011;10206;48.012;10.030;2024-01-07T12:01:15;17.70;;;9.77;;
20093;SDS011;10206;48.012;10.030;2024-01-07T12:03:45;15.87;;;9.60;;
20093;SDS011;10206;48.012;10.030;2024-01-07T12:06:11;19.10;;;10.20;;
20093;SDS011;10206;48.012;10.030;2024-01-07T12:08:39;18.30;;;10.60;;
20093;SDS011;10206;48.012;10.030;2024-01-07T12:11:06;21.07;;;11.93;;
20093;SDS011;10206;48.012;10.030;2024-01-07T12:13:33;21.07;;;11.77;;
20093;SDS011;10206;48.012;10.030;2024-01-07T12:15:59;20.00;;;11.73;;
20093;SDS011;10206;48.012;10.030;2024-01-07T12:18:26;19.10;;;10.67;;
20093;SDS011;10206;48.012;10.030;2024-01-07T12:20:58;19.17;;;10.57;;
20093;SDS011;10206;48.012;10.030;2024-01-07T12:23:25;17.23;;;9.43;;
20093;SDS011;10206;48.012;10.030;2024-01-07T12:25:52;20.37;;;11.17;;
20093;SDS011;10206;48.012;10.030;2024-01-07T12:28:18;19.07;;;11.00;;
20093;SDS011;10206;48.012;10.030;2024-01-07T12:30:45;19.73;;;10.77;;
20093;SDS011;10206;48.012;10.030;2024-01-07T12:33:18;19.23;;;11.23;;
20093;SDS011;10206;48.012;10.030;2024-01-07T12:35:45;19.83;;;10.53;;
20093;SDS011;10206;48.012;10.030;2024-01-07T12:38:12;20.70;;;11.47;;
20093;SDS011;10206;48.012;10.030;2024-01-07T12:40:38;20.00;;;10.60;;
20093;SDS011;10206;48.012;10.030;2024-01-07T12:43:05;21.83;;;10.63;;
20093;SDS011;10206;48.012;10.030;2024-01-07T12:45:34;19.87;;;11.10;;
20093;SDS011;10206;48.012;10.030;2024-01-07T12:48:00;20.67;;;12.27;;
20093;SDS011;10206;48.012;10.030;2024-01-07T12:50:27;20.07;;;11.13;;
20093;SDS011;10206;48.012;10.030;2024-01-07T12:52:56;19.20;;;10.80;;
20093;SDS011;10206;48.012;10.030;2024-01-07T12:55:22;20.43;;;11.83;;
20093;SDS011;10206;48.012;10.030;2024-01-07T12:57:49;21.20;;;11.30;;
20093;SDS011;10206;48.012;10.030;2024-01-07T13:00:15;20.80;;;11.37;;
20093;SDS011;10206;48.012;10.030;2024-01-07T13:02:42;19.37;;;10.43;;
20093;SDS011;10206;48.012;10.030;2024-01-07T13:05:08;20.93;;;11.13;;
20093;SDS011;10206;48.012;10.030;2024-01-07T13:07:35;23.30;;;11.77;;
20093;SDS011;10206;48.012;10.030;2024-01-07T13:10:01;19.13;;;11.33;;
20093;SDS011;10206;48.012;10.030;2024-01-07T13:12:27;19.97;;;10.70;;
20093;SDS011;10206;48.012;10.030;2024-01-07T13:14:53;20.53;;;11.50;;
20093;SDS011;10206;48.012;10.030;2024-01-07T13:17:19;19.80;;;11.23;;
20093;SDS011;10206;48.012;10.030;2024-01-07T13:19:45;22.40;;;11.33;;
20093;SDS011;10206;48.012;10.030;2024-01-07T13:22:11;23.53;;;12.63;;
20093;SDS011;10206;48.012;10.030;2024-01-07T13:24:38;20.83;;;12.20;;
20093;SDS011;10206;48.012;10.030;2024-01-07T13:27:05;22.20;;;12.53;;
20093;SDS011;10206;48.012;10.030;2024-01-07T13:29:33;20.97;;;12.20;;
20093;SDS011;10206;48.012;10.030;2024-01-07T13:32:00;21.40;;;12.43;;
20093;SDS011;10206;48.012;10.030;2024-01-07T13:34:26;21.20;;;11.80;;
20093;SDS011;10206;48.012;10.030;2024-01-07T13:36:53;35.20;;;17.10;;
20093;SDS011;10206;48.012;10.030;2024-01-07T13:39:19;33.20;;;15.50;;
20093;SDS011;10206;48.012;10.030;2024-01-07T13:41:46;21.87;;;12.27;;
20093;SDS011;10206;48.012;10.030;2024-01-07T13:44:13;25.77;;;13.37;;
20093;SDS011;10206;48.012;10.030;2024-01-07T13:46:45;22.23;;;12.47;;
20093;SDS011;10206;48.012;10.030;2024-01-07T13:49:12;20.40;;;11.63;;
20093;SDS011;10206;48.012;10.030;2024-01-07T13:51:39;18.60;;;10.80;;
20093;SDS011;10206;48.012;10.030;2024-01-07T13:54:06;20.83;;;11.80;;
20093;SDS011;10206;48.012;10.030;2024-01-07T13:56:32;18.40;;;11.23;;
20093;SDS011;10206;48.012;10.030;2024-01-07T13:59:01;20.27;;;11.50;;
20093;SDS011;10206;48.012;10.030;2024-01-07T14:01:30;26.17;;;14.00;;
20093;SDS011;10206;48.012;10.030;2024-01-07T14:03:57;21.70;;;12.10;;
20093;SDS011;10206;48.012;10.030;2024-01-07T14:06:23;20.67;;;11.77;;
20093;SDS011;10206;48.012;10.030;2024-01-07T14:08:49;20.13;;;10.97;;
20093;SDS011;10206;48.012;10.030;2024-01-07T14:11:15;21.67;;;12.40;;
20093;SDS011;10206;48.012;10.030;2024-01-07T14:13:42;21.67;;;12.07;;
20093;SDS011;10206;48.012;10.030;2024-01-07T14:16:10;19.93;;;11.13;;
20093;SDS011;10206;48.012;10.030;2024-01-07T14:18:36;20.50;;;12.33;;
20093;SDS011;10206;48.012;10.030;2024-01-07T14:21:02;22.47;;;13.13;;